Time;durP1;ratioP1;P1;durP2;ratioP2;P2;SDS_P1;SDS_P2;PMS_P1;PMS_P2;Temp;Humidity;BMP_temperature;BMP_pressure;BME280_temperature;BME280_humidity;BME280_pressure;Samples;Min_cycle;Max_cycle;Signal;HPM_P1;HPM_P2
2021/01/19 00:00:12;;;;;;;5.33;3.40;;;8.50;99.90;;;;;;4989941;28;20214;-88
2021/01/19 00:02:44;;;;;;;4.00;3.00;;;8.50;99.90;;;;;;4974643;28;20207;-88
2021/01/19 00:05:16;;;;;;;7.77;3.87;;;8.40;99.90;;;;;;4984731;28;20195;-88
2021/01/19 00:07:49;;;;;;;4.33;3.83;;;8.40;99.90;;;;;;4972716;28;20237;-89
2021/01/19 00:10:22;;;;;;;5.50;3.90;;;8.30;99.90;;;;;;4983430;28;20193;-89
2021/01/19 00:12:55;;;;;;;6.40;3.43;;;8.20;99.90;;;;;;4994013;28;20194;-89
2021/01/19 00:15:27;;;;;;;7.83;4.27;;;8.10;99.90;;;;;;4994324;28;20197;-88
2021/01/19 00:17:58;;;;;;;4.83;3.00;;;8.00;99.90;;;;;;4977513;28;20279;-88
2021/01/19 00:20:30;;;;;;;4.90;3.20;;;7.90;99.90;;;;;;4961929;29;20246;-88
2021/01/19 00:23:12;;;;;;;4.50;3.63;;;7.90;99.90;;;;;;4976134;29;20218;-89
2021/01/19 00:25:43;;;;;;;5.10;3.17;;;7.80;99.90;;;;;;4987820;28;20212;-88
2021/01/19 00:28:26;;;;;;;5.87;3.60;;;7.60;99.90;;;;;;4993619;28;20277;-89
2021/01/19 00:30:56;;;;;;;4.77;3.13;;;7.60;99.90;;;;;;4994327;28;20214;-87
2021/01/19 00:33:27;;;;;;;5.17;3.43;;;7.50;99.90;;;;;;4991746;28;20203;-89
2021/01/19 00:35:59;;;;;;;8.17;4.20;;;7.60;99.90;;;;;;4994047;28;20226;-89
2021/01/19 00:38:34;;;;;;;8.03;3.77;;;7.50;99.90;;;;;;4993682;28;20191;-89
2021/01/19 00:41:10;;;;;;;6.87;4.43;;;7.50;99.90;;;;;;4979126;28;20264;-90
2021/01/19 00:43:59;;;;;;;5.57;3.90;;;7.40;99.90;;;;;;4960318;28;20225;-89
2021/01/19 00:46:36;;;;;;;7.03;4.17;;;7.20;99.90;;;;;;4957464;28;20243;-96
2021/01/19 00:49:08;;;;;;;5.33;3.17;;;7.10;99.90;;;;;;4981590;28;20367;-89
2021/01/19 00:51:39;;;;;;;4.80;3.10;;;7.00;99.90;;;;;;4977245;28;20203;-89
2021/01/19 00:54:16;;;;;;;4.47;2.80;;;6.90;99.90;;;;;;4982446;28;20212;-88
2021/01/19 00:56:48;;;;;;;3.77;2.90;;;6.70;99.90;;;;;;4978228;28;20235;-88
2021/01/19 00:59:21;;;;;;;4.50;2.97;;;6.50;99.90;;;;;;4967435;28;20249;-87
2021/01/19 01:01:54;;;;;;;6.00;3.23;;;6.40;99.90;;;;;;4984796;28;20259;-89
2021/01/19 01:07:19;;;;;;;5.83;3.37;;;6.10;99.90;;;;;;4986320;28;20327;-88
2021/01/19 01:15:14;;;;;;;7.07;3.43;;;5.80;99.90;;;;;;5005299;28;20335;-87
2021/01/19 01:17:45;;;;;;;5.93;3.07;;;5.70;99.90;;;;;;4996860;28;20218;-88
2021/01/19 01:20:19;;;;;;;7.00;3.93;;;5.60;99.90;;;;;;4991086;28;20212;-88
2021/01/19 01:22:53;;;;;;;4.80;3.50;;;5.50;99.90;;;;;;4996587;28;20223;-94
2021/01/19 01:25:24;;;;;;;10.20;4.10;;;5.40;99.90;;;;;;4999192;28;20216;-93
2021/01/19 01:27:57;;;;;;;5.70;3.60;;;5.30;99.90;;;;;;5008166;28;20230;-93
2021/01/19 01:30:30;;;;;;;7.20;4.30;;;5.30;99.90;;;;;;5011739;28;20205;-94
2021/01/19 01:33:03;;;;;;;30.07;10.37;;;5.20;99.90;;;;;;4997897;28;20215;-93
2021/01/19 01:35:37;;;;;;;21.97;8.20;;;5.20;99.90;;;;;;5006744;28;20289;-94
2021/01/19 01:38:12;;;;;;;21.37;8.33;;;5.10;99.90;;;;;;4989786;28;20226;-94
2021/01/19 01:40:43;;;;;;;46.37;13.00;;;5.10;99.90;;;;;;5016514;28;20198;-93
2021/01/19 01:43:17;;;;;;;7.93;4.90;;;5.10;99.90;;;;;;4980125;28;20219;-93
2021/01/19 01:45:50;;;;;;;131.70;32.50;;;5.10;99.90;;;;;;5008851;28;20207;-93
2021/01/19 01:48:22;;;;;;;17.13;6.70;;;5.00;99.90;;;;;;5001941;28;20202;-92
2021/01/19 01:50:54;;;;;;;7.30;4.63;;;5.00;99.90;;;;;;5018988;28;20194;-94
2021/01/19 01:53:28;;;;;;;6.13;4.33;;;4.90;99.90;;;;;;5019426;28;20196;-92
2021/01/19 01:56:00;;;;;;;40.90;13.03;;;4.90;99.90;;;;;;5057187;23;20235;-91
2021/01/19 01:58:32;;;;;;;23.10;10.17;;;4.80;99.90;;;;;;4999357;28;20242;-90
2021/01/19 02:01:05;;;;;;;16.17;9.93;;;4.80;99.90;;;;;;4969675;28;20208;-93
2021/01/19 02:03:39;;;;;;;18.57;12.47;;;4.70;99.90;;;;;;4962018;29;20267;-93
2021/01/19 02:06:10;;;;;;;19.47;12.77;;;4.60;99.90;;;;;;4978770;28;20222;-93
2021/01/19 02:08:55;;;;;;;22.77;10.83;;;4.60;99.90;;;;;;4992039;28;20199;-93
2021/01/19 02:11:51;;;;;;;24.20;10.70;;;4.50;99.90;;;;;;4988765;28;20230;-95
2021/01/19 02:14:28;;;;;;;10.23;6.50;;;4.50;99.90;;;;;;4988179;28;20211;-95
2021/01/19 02:17:16;;;;;;;9.20;6.10;;;4.40;99.90;;;;;;4981286;28;20292;-95
2021/01/19 02:20:14;;;;;;;9.80;6.20;;;4.30;99.90;;;;;;4960775;29;20259;-95
2021/01/19 02:23:10;;;;;;;7.77;5.57;;;4.30;99.90;;;;;;4983053;28;20251;-94
2021/01/19 02:26:23;;;;;;;11.27;6.10;;;4.30;99.90;;;;;;4968099;29;20271;-94
2021/01/19 02:34:32;;;;;;;10.97;5.67;;;4.20;99.90;;;;;;4957595;29;20306;-93
2021/01/19 02:37:11;;;;;;;12.37;7.20;;;4.20;99.90;;;;;;4956969;29;20212;-94
2021/01/19 02:39:50;;;;;;;16.47;8.80;;;4.10;99.90;;;;;;4957172;29;20276;-94
2021/01/19 02:42:26;;;;;;;7.43;5.60;;;4.10;99.90;;;;;;4956522;29;20211;-92
2021/01/19 02:45:00;;;;;;;10.43;6.57;;;4.10;99.90;;;;;;4952540;29;20204;-91
2021/01/19 02:47:31;;;;;;;10.03;6.60;;;4.00;99.90;;;;;;4957303;29;20322;-96
2021/01/19 02:50:06;;;;;;;8.23;5.67;;;4.00;99.90;;;;;;4957653;29;20205;-91
2021/01/19 02:52:38;;;;;;;11.53;6.77;;;4.00;99.90;;;;;;4603812;29;9999976;-91
2021/01/19 02:55:10;;;;;;;11.00;6.93;;;4.00;99.90;;;;;;4951022;29;20233;-93
2021/01/19 02:58:06;;;;;;;11.07;7.17;;;4.00;99.90;;;;;;4953363;29;20220;-91
2021/01/19 03:00:59;;;;;;;13.20;8.87;;;3.90;99.90;;;;;;4949487;29;20243;-93
2021/01/19 03:03:35;;;;;;;13.27;8.60;;;3.90;99.90;;;;;;4951918;29;20239;-92
2021/01/19 03:06:19;;;;;;;11.17;7.87;;;3.80;99.90;;;;;;4939925;29;20247;-95
2021/01/19 03:08:54;;;;;;;11.50;8.20;;;3.80;99.90;;;;;;4951379;29;20212;-93
2021/01/19 03:14:13;;;;;;;12.33;8.13;;;3.80;99.90;;;;;;4984346;23;20251;-92
2021/01/19 03:16:45;;;;;;;10.77;7.47;;;3.80;99.90;;;;;;4936235;29;20248;-96
2021/01/19 03:19:18;;;;;;;13.17;8.00;;;3.70;99.90;;;;;;4951579;29;20218;-93
2021/01/19 03:32:27;;;;;;;14.83;8.30;;;3.60;99.90;;;;;;5009722;28;20281;-93
2021/01/19 03:35:03;;;;;;;12.13;8.87;;;3.60;99.90;;;;;;5012922;28;20206;-93
2021/01/19 03:37:34;;;;;;;10.70;8.00;;;3.60;99.90;;;;;;5011294;28;20292;-95
2021/01/19 03:40:13;;;;;;;11.67;7.80;;;3.70;99.90;;;;;;5002453;28;20214;-95
2021/01/19 03:42:47;;;;;;;10.07;6.73;;;3.80;99.90;;;;;;4993326;28;20203;-93
2021/01/19 03:45:17;;;;;;;11.43;6.47;;;3.90;99.90;;;;;;4989155;28;20294;-96
2021/01/19 03:47:50;;;;;;;9.60;6.47;;;4.00;99.90;;;;;;5003958;28;20210;-95
2021/01/19 03:50:23;;;;;;;7.33;6.23;;;4.10;99.90;;;;;;5007913;28;20237;-94
2021/01/19 03:52:54;;;;;;;11.63;6.60;;;4.10;99.90;;;;;;5005382;28;20289;-93
2021/01/19 03:55:30;;;;;;;7.37;5.80;;;4.20;99.90;;;;;;4993374;28;20215;-92
2021/01/19 03:58:01;;;;;;;9.67;6.17;;;4.30;99.90;;;;;;4996166;28;20838;-92
2021/01/19 04:00:33;;;;;;;6.53;5.67;;;4.40;99.90;;;;;;4995943;28;20207;-94
2021/01/19 04:03:08;;;;;;;6.70;5.63;;;4.50;99.90;;;;;;4977029;28;20198;-94
2021/01/19 04:05:40;;;;;;;7.07;5.97;;;4.60;99.90;;;;;;4981310;28;20210;-92
2021/01/19 04:08:11;;;;;;;8.87;6.43;;;4.70;99.90;;;;;;5004379;28;20265;-93
2021/01/19 04:10:48;;;;;;;8.27;6.00;;;4.80;99.90;;;;;;5007635;28;20297;-92
2021/01/19 04:13:19;;;;;;;8.07;6.07;;;4.90;99.90;;;;;;5009474;28;20214;-94
2021/01/19 04:15:51;;;;;;;8.00;6.03;;;4.90;99.90;;;;;;4992661;28;20214;-94
2021/01/19 04:18:23;;;;;;;9.30;6.13;;;5.00;99.90;;;;;;4959347;28;20214;-93
2021/01/19 04:20:54;;;;;;;9.43;6.93;;;5.00;99.90;;;;;;4995636;28;20207;-93
2021/01/19 04:23:25;;;;;;;20.47;12.50;;;5.00;99.90;;;;;;4998268;28;20203;-94
2021/01/19 04:25:56;;;;;;;256.83;108.33;;;5.00;99.90;;;;;;5008317;28;20194;-95
2021/01/19 04:28:26;;;;;;;89.47;38.63;;;5.00;99.90;;;;;;5008010;28;20206;-89
2021/01/19 04:30:58;;;;;;;45.83;16.67;;;5.00;99.90;;;;;;5009666;28;20218;-93
2021/01/19 04:33:32;;;;;;;45.97;15.80;;;5.00;99.90;;;;;;5008505;28;20212;-93
2021/01/19 04:36:03;;;;;;;44.80;15.40;;;4.90;99.90;;;;;;5011417;28;20535;-93
2021/01/19 04:38:34;;;;;;;30.70;11.77;;;4.90;99.90;;;;;;5008050;28;20635;-93
2021/01/19 04:41:08;;;;;;;25.87;9.77;;;4.80;99.90;;;;;;5005872;28;20199;-93
2021/01/19 04:43:39;;;;;;;36.73;14.53;;;4.70;99.90;;;;;;4995691;28;20293;-93
2021/01/19 04:46:11;;;;;;;22.47;10.30;;;4.60;99.90;;;;;;5012518;28;20214;-94
2021/01/19 04:48:46;;;;;;;25.53;12.37;;;4.50;99.90;;;;;;5013019;28;20225;-92
2021/01/19 04:51:26;;;;;;;16.93;9.67;;;4.40;99.90;;;;;;5007342;28;20253;-93
2021/01/19 04:54:03;;;;;;;13.53;8.03;;;4.30;99.90;;;;;;5010138;28;20655;-93
2021/01/19 04:56:50;;;;;;;11.67;7.40;;;4.20;99.90;;;;;;4994948;28;20223;-93
2021/01/19 04:59:28;;;;;;;10.50;7.63;;;4.20;99.90;;;;;;5001840;28;20210;-91
2021/01/19 05:02:52;;;;;;;12.13;8.57;;;4.10;99.90;;;;;;4998889;28;20345;-93
2021/01/19 05:06:08;;;;;;;10.13;8.03;;;4.00;99.90;;;;;;4993897;28;20199;-93
2021/01/19 05:09:10;;;;;;;12.23;8.60;;;4.00;99.90;;;;;;5001125;28;20268;-92
2021/01/19 05:11:55;;;;;;;11.30;8.07;;;3.90;99.90;;;;;;4993584;28;20277;-94
2021/01/19 05:14:38;;;;;;;10.57;8.10;;;3.90;99.90;;;;;;4995686;28;20210;-94
2021/01/19 05:17:09;;;;;;;10.17;7.40;;;3.80;99.90;;;;;;4984784;28;20305;-93
2021/01/19 05:19:44;;;;;;;21.20;11.77;;;3.70;99.90;;;;;;4985319;28;20253;-95
2021/01/19 05:22:21;;;;;;;12.87;8.67;;;3.60;99.90;;;;;;4999240;28;20233;-93
2021/01/19 05:24:55;;;;;;;13.90;8.90;;;3.60;99.90;;;;;;4994056;28;20249;-94
2021/01/19 05:27:26;;;;;;;19.27;9.67;;;3.60;99.90;;;;;;4997745;28;20236;-94
2021/01/19 05:30:01;;;;;;;16.33;9.73;;;3.50;99.90;;;;;;4978603;28;20210;-94
2021/01/19 05:32:40;;;;;;;19.70;11.27;;;3.50;99.90;;;;;;4989038;28;20209;-91
2021/01/19 05:35:42;;;;;;;25.00;14.37;;;3.50;99.90;;;;;;4998837;28;20202;-93
2021/01/19 05:38:18;;;;;;;11.13;8.07;;;3.40;99.90;;;;;;5005598;28;20240;-94
2021/01/19 05:40:48;;;;;;;21.30;11.47;;;3.40;99.90;;;;;;5006134;28;20237;-94
2021/01/19 05:43:19;;;;;;;13.90;10.30;;;3.30;99.90;;;;;;5003515;28;20210;-94
2021/01/19 05:45:54;;;;;;;17.47;10.53;;;3.30;99.90;;;;;;5002837;28;20221;-93
2021/01/19 05:48:38;;;;;;;12.13;9.30;;;3.30;99.90;;;;;;5006183;28;20217;-93
2021/01/19 05:51:11;;;;;;;14.43;9.60;;;3.30;99.90;;;;;;5004623;28;20215;-95
2021/01/19 05:53:53;;;;;;;17.13;11.37;;;3.30;99.90;;;;;;5004483;28;20207;-96
2021/01/19 05:56:24;;;;;;;18.77;10.17;;;3.20;99.90;;;;;;4985933;28;20217;-94
2021/01/19 05:58:55;;;;;;;33.03;11.93;;;3.20;99.90;;;;;;4993279;28;20610;-94
2021/01/19 06:01:32;;;;;;;35.00;13.10;;;3.20;99.90;;;;;;4987978;28;20278;-93
2021/01/19 06:04:04;;;;;;;23.10;10.63;;;3.20;99.90;;;;;;4976884;28;20907;-94
2021/01/19 06:06:35;;;;;;;29.63;12.27;;;3.10;99.90;;;;;;4975795;28;20925;-94
2021/01/19 06:09:07;;;;;;;20.53;10.57;;;3.10;99.90;;;;;;4996242;28;20671;-94
2021/01/19 06:11:50;;;;;;;31.97;12.30;;;3.10;99.90;;;;;;5005597;28;20209;-94
2021/01/19 06:14:25;;;;;;;22.07;10.60;;;3.10;99.90;;;;;;4996096;28;20207;-93
2021/01/19 06:17:11;;;;;;;23.07;11.17;;;3.00;99.90;;;;;;4975566;28;20320;-93
2021/01/19 06:19:43;;;;;;;34.03;13.80;;;3.00;99.90;;;;;;4997208;28;20229;-93
2021/01/19 06:22:16;;;;;;;14.20;9.87;;;3.00;99.90;;;;;;5005952;28;20256;-93
2021/01/19 06:24:49;;;;;;;16.00;9.97;;;3.00;99.90;;;;;;4998743;28;20647;-94
2021/01/19 06:27:29;;;;;;;19.53;11.53;;;3.00;99.90;;;;;;4999012;28;20207;-94
2021/01/19 06:30:10;;;;;;;17.63;11.37;;;2.90;99.90;;;;;;5006343;28;20214;-93
2021/01/19 06:32:48;;;;;;;16.70;10.57;;;2.90;99.90;;;;;;4997064;28;20217;-93
2021/01/19 06:35:21;;;;;;;14.10;9.87;;;2.90;99.90;;;;;;5006468;28;20214;-94
2021/01/19 06:37:53;;;;;;;26.27;11.70;;;2.90;99.90;;;;;;4998665;28;20637;-94
2021/01/19 06:40:27;;;;;;;22.50;13.50;;;2.90;99.90;;;;;;4996857;28;20342;-95
2021/01/19 06:43:00;;;;;;;15.73;11.90;;;2.80;99.90;;;;;;4992146;28;20490;-93
2021/01/19 06:45:31;;;;;;;21.07;13.20;;;2.80;99.90;;;;;;4987544;28;20210;-94
2021/01/19 06:48:04;;;;;;;14.93;11.33;;;2.80;99.90;;;;;;4999092;28;20198;-93
2021/01/19 06:50:37;;;;;;;13.23;10.47;;;2.80;99.90;;;;;;4999649;28;20214;-95
2021/01/19 06:53:23;;;;;;;13.77;10.70;;;2.80;99.90;;;;;;5001373;28;20222;-94
2021/01/19 06:56:12;;;;;;;20.33;12.17;;;2.70;99.90;;;;;;4995735;28;20509;-95
2021/01/19 06:58:52;;;;;;;23.53;15.00;;;2.80;99.90;;;;;;4995861;28;20288;-95
2021/01/19 07:01:24;;;;;;;18.10;12.10;;;2.80;99.90;;;;;;4988441;28;20241;-95
2021/01/19 07:04:05;;;;;;;24.10;12.60;;;2.70;99.90;;;;;;4982077;28;20207;-95
2021/01/19 07:07:10;;;;;;;16.17;11.27;;;2.70;99.90;;;;;;5000040;28;20206;-95
2021/01/19 07:10:06;;;;;;;16.47;11.70;;;2.70;99.90;;;;;;4992114;28;20198;-94
2021/01/19 07:12:59;;;;;;;25.53;14.80;;;2.60;99.90;;;;;;5007633;28;20190;-94
2021/01/19 07:16:06;;;;;;;19.40;12.87;;;2.70;99.90;;;;;;5003807;28;20207;-95
2021/01/19 07:18:58;;;;;;;16.80;11.43;;;2.60;99.90;;;;;;4992025;28;20234;-94
2021/01/19 07:21:54;;;;;;;17.47;12.03;;;2.60;99.90;;;;;;4990153;28;20249;-95
2021/01/19 07:24:28;;;;;;;17.60;12.43;;;2.50;99.90;;;;;;4991732;28;20199;-95
2021/01/19 07:27:01;;;;;;;17.10;12.37;;;2.50;99.90;;;;;;4991330;28;20190;-96
2021/01/19 07:29:38;;;;;;;21.63;13.80;;;2.50;99.90;;;;;;4997821;28;20271;-96
2021/01/19 07:32:11;;;;;;;23.20;13.50;;;2.50;99.90;;;;;;4994773;28;20256;-94
2021/01/19 07:34:47;;;;;;;20.70;13.83;;;2.50;99.90;;;;;;4984752;28;20203;-95
2021/01/19 07:37:29;;;;;;;18.90;12.67;;;2.50;99.90;;;;;;4996833;28;20233;-94
2021/01/19 07:40:00;;;;;;;44.70;11.87;;;2.40;99.90;;;;;;4986194;28;20209;-94
2021/01/19 07:42:34;;;;;;;41.03;12.27;;;2.30;99.90;;;;;;4976216;28;20272;-93
2021/01/19 07:45:08;;;;;;;170.33;16.83;;;2.40;99.90;;;;;;4992273;28;20249;-96
2021/01/19 07:47:40;;;;;;;37.03;12.20;;;2.30;99.90;;;;;;4986416;28;20195;-95
2021/01/19 07:50:16;;;;;;;51.63;13.90;;;2.20;99.90;;;;;;4997999;28;20222;-94
2021/01/19 07:52:48;;;;;;;77.07;13.17;;;2.30;99.90;;;;;;4997612;28;20242;-95
2021/01/19 07:55:20;;;;;;;133.60;14.70;;;2.20;99.90;;;;;;4988569;28;20300;-96
2021/01/19 07:57:53;;;;;;;171.50;15.20;;;2.30;99.90;;;;;;4982263;28;20234;-94
2021/01/19 08:00:27;;;;;;;220.40;16.47;;;2.30;99.90;;;;;;5001444;28;20225;-94
2021/01/19 08:03:05;;;;;;;201.07;15.80;;;2.30;99.90;;;;;;4988440;28;20285;-95
2021/01/19 08:05:36;;;;;;;184.27;15.37;;;2.20;99.90;;;;;;4996302;28;20198;-95
2021/01/19 08:08:17;;;;;;;180.67;13.53;;;2.20;99.90;;;;;;4989711;28;20216;-94
2021/01/19 08:10:59;;;;;;;149.00;14.67;;;2.20;99.90;;;;;;4993466;28;20218;-95
2021/01/19 08:13:32;;;;;;;64.57;12.00;;;2.20;99.90;;;;;;4996461;28;20238;-95
2021/01/19 08:16:05;;;;;;;118.10;12.13;;;2.20;99.90;;;;;;4996583;28;20268;-94
2021/01/19 08:18:41;;;;;;;94.90;12.80;;;2.20;99.90;;;;;;5002697;28;20713;-94
2021/01/19 08:21:12;;;;;;;70.93;11.67;;;2.30;99.90;;;;;;5002900;28;20668;-94
2021/01/19 08:23:43;;;;;;;91.40;13.30;;;2.40;99.90;;;;;;4972849;28;20211;-95
2021/01/19 08:26:13;;;;;;;99.50;14.30;;;2.40;99.90;;;;;;5000090;28;20226;-95
2021/01/19 08:28:44;;;;;;;59.87;13.20;;;2.50;99.90;;;;;;4995723;28;20233;-95
2021/01/19 08:31:19;;;;;;;42.40;13.60;;;2.50;99.90;;;;;;4996872;28;20671;-94
2021/01/19 08:33:51;;;;;;;108.77;16.27;;;2.60;99.90;;;;;;4971790;28;20203;-94
2021/01/19 08:36:41;;;;;;;201.63;18.67;;;2.70;99.90;;;;;;4996738;28;20215;-91
2021/01/19 08:39:35;;;;;;;273.17;20.80;;;2.90;99.90;;;;;;5007209;28;20194;-96
2021/01/19 08:42:21;;;;;;;226.77;16.70;;;2.90;99.90;;;;;;4991132;28;20220;-95
2021/01/19 08:44:59;;;;;;;214.83;18.97;;;2.90;99.90;;;;;;4990254;28;20686;-94
2021/01/19 08:47:33;;;;;;;232.27;17.73;;;2.90;99.90;;;;;;4997475;28;20238;-94
2021/01/19 08:50:18;;;;;;;203.63;17.47;;;3.00;99.90;;;;;;5000763;28;20206;-93
2021/01/19 08:52:49;;;;;;;260.77;20.33;;;3.00;99.90;;;;;;4998978;28;20252;-95
2021/01/19 08:55:21;;;;;;;238.13;17.40;;;3.10;99.90;;;;;;4999532;28;20206;-95
2021/01/19 08:57:58;;;;;;;357.63;20.53;;;3.10;99.90;;;;;;4972470;28;20297;-94
2021/01/19 09:00:33;;;;;;;408.57;22.03;;;3.00;99.90;;;;;;4980978;28;20210;-94
2021/01/19 09:03:14;;;;;;;288.90;20.23;;;3.00;99.90;;;;;;4993600;28;20209;-95
2021/01/19 09:06:05;;;;;;;270.17;19.37;;;3.00;99.90;;;;;;4979881;28;20261;-96
2021/01/19 09:08:38;;;;;;;253.80;17.90;;;3.00;99.90;;;;;;4983704;28;20218;-96
2021/01/19 09:11:12;;;;;;;279.67;16.57;;;2.90;99.90;;;;;;5000480;28;20222;-95
2021/01/19 09:13:49;;;;;;;245.33;16.50;;;2.90;99.90;;;;;;4999830;28;20317;-94
2021/01/19 09:16:25;;;;;;;229.90;17.57;;;2.90;99.90;;;;;;4993784;28;20195;-95
2021/01/19 09:18:59;;;;;;;165.80;13.33;;;2.90;99.90;;;;;;5008853;28;20252;-96
2021/01/19 09:21:30;;;;;;;187.23;15.13;;;2.90;99.90;;;;;;5011858;28;20710;-96
2021/01/19 09:24:01;;;;;;;172.73;11.97;;;2.80;99.90;;;;;;5002602;28;20229;-95
2021/01/19 09:26:45;;;;;;;143.93;13.23;;;2.90;99.90;;;;;;4994514;28;20230;-95
2021/01/19 09:29:16;;;;;;;178.30;12.13;;;2.90;99.90;;;;;;5010815;28;20222;-94
2021/01/19 09:31:47;;;;;;;172.33;14.00;;;2.80;99.90;;;;;;4995854;28;20211;-94
2021/01/19 09:34:21;;;;;;;238.43;15.73;;;2.80;99.90;;;;;;5008874;28;20206;-95
2021/01/19 09:36:52;;;;;;;288.53;15.90;;;2.80;99.90;;;;;;5005464;28;20302;-95
2021/01/19 09:39:30;;;;;;;330.47;17.97;;;2.60;99.90;;;;;;4990999;28;20245;-95
2021/01/19 09:42:03;;;;;;;244.73;13.50;;;2.60;99.90;;;;;;4995399;28;20203;-94
2021/01/19 09:44:37;;;;;;;284.87;15.13;;;2.60;99.90;;;;;;4982428;28;20207;-95
2021/01/19 09:47:09;;;;;;;245.30;12.83;;;2.70;99.90;;;;;;5001609;28;20253;-95
2021/01/19 09:49:43;;;;;;;140.77;9.60;;;2.60;99.90;;;;;;4991911;28;20202;-94
2021/01/19 09:52:15;;;;;;;130.53;9.77;;;2.60;99.90;;;;;;4993177;28;20214;-92
2021/01/19 09:54:46;;;;;;;158.33;9.77;;;2.50;99.90;;;;;;5009090;28;20198;-95
2021/01/19 09:57:17;;;;;;;164.63;11.10;;;2.50;99.90;;;;;;5009477;28;20210;-94
2021/01/19 09:59:47;;;;;;;116.77;8.20;;;2.50;99.90;;;;;;5007343;28;20194;-95
2021/01/19 10:02:28;;;;;;;89.50;7.53;;;2.50;99.90;;;;;;4991944;28;20221;-94
2021/01/19 10:05:05;;;;;;;157.13;9.77;;;2.50;99.90;;;;;;5008841;28;20218;-94
2021/01/19 10:07:36;;;;;;;147.43;9.47;;;2.60;99.90;;;;;;5005431;28;20277;-95
2021/01/19 10:10:11;;;;;;;161.90;10.23;;;2.60;99.90;;;;;;5006784;28;20738;-93
2021/01/19 10:12:41;;;;;;;82.30;7.93;;;2.50;99.90;;;;;;5006042;28;20195;-95
2021/01/19 10:15:14;;;;;;;123.50;9.17;;;2.50;99.90;;;;;;5002887;28;20256;-95
2021/01/19 10:17:45;;;;;;;139.43;10.30;;;2.50;99.90;;;;;;5016118;28;20292;-96
2021/01/19 10:20:18;;;;;;;157.37;9.97;;;2.50;99.90;;;;;;5018291;28;20210;-96
2021/01/19 10:22:49;;;;;;;124.27;9.50;;;2.50;99.90;;;;;;5009777;28;20233;-93
2021/01/19 10:25:28;;;;;;;161.40;10.73;;;2.50;99.90;;;;;;5005001;28;20225;-94
2021/01/19 10:28:00;;;;;;;241.50;11.90;;;2.50;99.90;;;;;;5016554;28;20242;-95
2021/01/19 10:30:32;;;;;;;106.63;8.60;;;2.50;99.90;;;;;;5003502;28;20206;-96
2021/01/19 10:33:04;;;;;;;148.13;10.50;;;2.40;99.90;;;;;;5006258;28;20211;-89
2021/01/19 10:35:37;;;;;;;131.67;9.53;;;2.50;99.90;;;;;;5002410;28;20218;-94
2021/01/19 10:38:09;;;;;;;59.87;7.63;;;2.40;99.90;;;;;;4987813;28;20282;-96
2021/01/19 10:40:47;;;;;;;189.77;12.67;;;2.40;99.90;;;;;;5018201;28;20202;-94
2021/01/19 10:43:18;;;;;;;210.77;10.73;;;2.40;99.90;;;;;;5014901;28;20251;-95
2021/01/19 10:45:50;;;;;;;199.90;11.67;;;2.40;99.90;;;;;;5014340;28;20204;-93
2021/01/19 10:48:22;;;;;;;168.20;9.53;;;2.30;99.90;;;;;;5001979;28;20210;-93
2021/01/19 10:50:55;;;;;;;120.00;9.53;;;2.30;99.90;;;;;;5017102;28;20226;-94
2021/01/19 10:53:29;;;;;;;198.47;11.73;;;2.30;99.90;;;;;;4996190;28;20194;-95
2021/01/19 10:56:00;;;;;;;211.43;11.07;;;2.40;99.90;;;;;;5003742;28;20186;-91
2021/01/19 10:58:31;;;;;;;146.57;9.13;;;2.30;99.90;;;;;;5007987;28;20218;-94
2021/01/19 11:01:02;;;;;;;119.17;10.17;;;2.30;99.90;;;;;;5009060;28;20266;-95
2021/01/19 11:03:33;;;;;;;98.47;7.30;;;2.30;99.90;;;;;;4995504;28;20211;-94
2021/01/19 11:06:04;;;;;;;61.80;7.00;;;2.30;99.90;;;;;;5008819;28;20234;-95
2021/01/19 11:08:35;;;;;;;42.53;6.37;;;2.30;99.90;;;;;;5007142;28;20279;-94
2021/01/19 11:11:06;;;;;;;38.23;5.17;;;2.20;99.90;;;;;;5005127;28;20218;-95
2021/01/19 11:13:37;;;;;;;78.97;8.07;;;2.20;99.90;;;;;;5002404;28;20202;-95
2021/01/19 11:16:08;;;;;;;110.10;9.40;;;2.20;99.90;;;;;;5001455;28;20221;-95
2021/01/19 11:18:39;;;;;;;187.07;9.53;;;2.20;99.90;;;;;;4997119;28;20223;-95
2021/01/19 11:21:13;;;;;;;154.10;8.67;;;2.30;99.90;;;;;;4985625;28;20222;-94
2021/01/19 11:23:44;;;;;;;164.30;9.00;;;2.30;99.90;;;;;;4986301;28;20242;-95
2021/01/19 11:26:17;;;;;;;265.70;11.57;;;2.20;99.90;;;;;;4995469;28;20199;-96
2021/01/19 11:28:48;;;;;;;332.87;14.67;;;2.30;99.90;;;;;;4996449;28;20309;-95
2021/01/19 11:31:23;;;;;;;350.13;15.67;;;2.30;99.90;;;;;;4992784;28;20218;-96
2021/01/19 11:33:54;;;;;;;429.80;20.13;;;2.30;99.90;;;;;;4982374;28;20335;-96
2021/01/19 11:36:27;;;;;;;524.17;20.80;;;2.30;99.90;;;;;;4995577;28;20268;-96
2021/01/19 11:38:58;;;;;;;301.03;14.73;;;2.30;99.90;;;;;;4999277;28;20321;-96
2021/01/19 11:41:30;;;;;;;459.43;20.83;;;2.30;99.90;;;;;;4983550;28;20213;-94
2021/01/19 11:44:01;;;;;;;488.80;23.10;;;2.20;99.90;;;;;;4993982;28;20282;-93
2021/01/19 11:46:32;;;;;;;286.17;13.43;;;2.20;99.90;;;;;;4971237;28;20253;-94
2021/01/19 11:49:05;;;;;;;477.57;19.87;;;2.20;99.90;;;;;;4991970;28;20215;-94
2021/01/19 11:51:40;;;;;;;439.80;20.30;;;2.30;99.90;;;;;;5006201;28;20206;-94
2021/01/19 11:54:10;;;;;;;236.80;12.73;;;2.20;99.90;;;;;;5002933;28;20208;-94
2021/01/19 11:56:42;;;;;;;287.40;12.90;;;2.20;99.90;;;;;;4998312;28;20246;-94
2021/01/19 11:59:13;;;;;;;338.57;16.17;;;2.10;99.90;;;;;;4977547;28;20261;-94
2021/01/19 12:01:44;;;;;;;305.33;13.20;;;2.10;99.90;;;;;;4996528;28;20196;-94
2021/01/19 12:04:15;;;;;;;498.90;23.57;;;2.10;99.90;;;;;;4998963;28;20274;-93
2021/01/19 12:06:47;;;;;;;360.00;17.33;;;2.10;99.90;;;;;;4999699;28;20256;-95
2021/01/19 12:09:18;;;;;;;314.70;14.27;;;2.10;99.90;;;;;;4990412;28;20288;-95
2021/01/19 12:11:53;;;;;;;364.33;15.93;;;2.00;99.90;;;;;;4998699;28;20245;-96
2021/01/19 12:14:24;;;;;;;340.87;14.87;;;2.00;99.90;;;;;;4997802;28;20235;-96
2021/01/19 12:16:55;;;;;;;560.13;24.07;;;2.00;99.90;;;;;;4990383;28;20195;-95
2021/01/19 12:19:27;;;;;;;310.17;14.67;;;2.00;99.90;;;;;;4997408;28;20288;-95
2021/01/19 12:21:59;;;;;;;525.83;21.00;;;2.00;99.90;;;;;;4992101;28;20201;-94
2021/01/19 12:24:31;;;;;;;267.37;12.00;;;1.70;99.90;;;;;;4970874;28;20521;-94
2021/01/19 12:27:01;;;;;;;380.77;15.37;;;1.70;99.90;;;;;;4995334;28;20263;-95
2021/01/19 12:29:32;;;;;;;315.27;14.33;;;1.70;99.90;;;;;;4991307;28;20245;-94
2021/01/19 12:32:06;;;;;;;375.17;13.93;;;1.70;99.90;;;;;;4996975;28;20214;-96
2021/01/19 12:34:38;;;;;;;189.93;8.80;;;1.40;99.90;;;;;;4988719;28;20213;-95
2021/01/19 12:37:10;;;;;;;115.23;5.87;;;1.30;99.90;;;;;;4991229;28;20209;-95
2021/01/19 12:39:41;;;;;;;94.10;5.43;;;1.30;99.90;;;;;;4995305;28;20230;-94
2021/01/19 12:42:12;;;;;;;88.43;5.67;;;1.30;99.90;;;;;;4997559;28;20202;-95
2021/01/19 12:44:42;;;;;;;37.73;3.37;;;1.40;99.90;;;;;;4987786;28;20203;-95
2021/01/19 12:47:12;;;;;;;48.93;3.57;;;1.40;99.90;;;;;;4979892;28;20233;-95
2021/01/19 12:49:43;;;;;;;10.87;2.97;;;1.50;99.90;;;;;;4999235;28;20706;-96
2021/01/19 12:52:18;;;;;;;5.40;2.23;;;1.50;99.90;;;;;;4970274;28;20210;-94
2021/01/19 12:54:48;;;;;;;4.07;1.90;;;1.50;99.90;;;;;;4990585;28;20233;-93
2021/01/19 12:57:19;;;;;;;1.80;1.70;;;1.40;99.90;;;;;;4992824;28;20213;-94
2021/01/19 12:59:50;;;;;;;2.27;2.07;;;1.40;99.90;;;;;;4990419;28;20229;-94
2021/01/19 13:02:21;;;;;;;2.40;1.60;;;1.40;99.90;;;;;;4972103;28;20214;-95
2021/01/19 13:04:52;;;;;;;2.10;1.60;;;1.40;99.90;;;;;;4984832;28;20213;-93
2021/01/19 13:07:25;;;;;;;2.70;1.60;;;1.40;99.90;;;;;;4987416;28;20214;-94
2021/01/19 13:09:56;;;;;;;1.90;1.67;;;1.40;99.90;;;;;;4996273;28;20194;-94
2021/01/19 13:12:29;;;;;;;2.33;1.70;;;1.40;99.90;;;;;;4996688;28;20201;-94
2021/01/19 13:15:00;;;;;;;2.43;1.67;;;1.50;99.90;;;;;;4990418;28;20199;-94
2021/01/19 13:17:34;;;;;;;2.00;1.60;;;1.50;99.90;;;;;;4988874;28;20214;-93
2021/01/19 13:20:06;;;;;;;1.80;1.47;;;1.40;99.90;;;;;;5000023;28;20629;-95
2021/01/19 13:22:38;;;;;;;1.70;1.60;;;1.40;99.90;;;;;;4998810;28;20691;-96
2021/01/19 13:25:10;;;;;;;1.60;1.50;;;1.40;99.90;;;;;;4994660;28;20313;-94
2021/01/19 13:27:41;;;;;;;1.70;1.40;;;1.40;99.90;;;;;;4992625;28;20210;-94
2021/01/19 13:30:13;;;;;;;2.30;1.40;;;1.30;99.90;;;;;;4995832;28;20238;-93
2021/01/19 13:32:43;;;;;;;1.60;1.50;;;1.30;99.90;;;;;;5007979;28;20206;-95
2021/01/19 13:35:17;;;;;;;2.63;1.80;;;1.30;99.90;;;;;;5004853;28;20225;-94
2021/01/19 13:37:49;;;;;;;1.93;1.70;;;1.30;99.90;;;;;;4998919;28;20268;-94
2021/01/19 13:40:20;;;;;;;1.90;1.60;;;1.30;99.90;;;;;;5000497;28;20260;-96
2021/01/19 13:42:52;;;;;;;2.00;1.80;;;1.30;99.90;;;;;;4981317;28;20209;-94
2021/01/19 13:45:23;;;;;;;1.70;1.57;;;1.30;99.90;;;;;;5001273;28;20203;-95
2021/01/19 13:47:54;;;;;;;1.60;1.50;;;1.30;99.90;;;;;;4968337;28;20267;-94